Time,TemperatureF,DewpointF,PressureIn,WindDirection,WindDirectionDegrees,WindSpeedMPH,WindSpeedGustMPH,Humidity,HourlyPrecipIn,Conditions,Clouds,dailyrainin,SoftwareType,DateUTC
2013-07-31 08:00:00,73.8,69.8,30.12,North,0,0.0,0.0,87,0.00,,,0.00,WUHU216HW,2013-07-31 12:00:00,
2013-07-31 08:05:00,73.8,69.8,30.12,North,0,0.0,0.0,87,0.00,,,0.00,WUHU216HW,2013-07-31 12:05:00,
2013-07-31 08:30:00,74.9,70.8,30.12,North,0,0.0,0.0,87,0.00,,,0.00,WUHU216HW,2013-07-31 12:30:00,
2013-07-31 08:35:00,74.9,70.8,30.12,North,0,0.0,0.0,87,0.00,,,0.00,WUHU216HW,2013-07-31 12:35:00,
2013-07-31 09:00:00,76.9,72.4,30.13,North,0,0.0,0.0,86,0.00,,,0.00,WUHU216HW,2013-07-31 13:00:00,
2013-07-31 09:05:00,76.9,72.4,30.13,North,0,0.0,0.0,86,0.00,,,0.00,WUHU216HW,2013-07-31 13:05:00,
2013-07-31 09:30:00,78.5,73.3,30.14,North,0,0.0,0.0,84,0.00,,,0.00,WUHU216HW,2013-07-31 13:30:00,
2013-07-31 09:35:00,78.5,73.3,30.14,North,0,0.0,0.0,84,0.00,,,0.00,WUHU216HW,2013-07-31 13:35:00,
2013-07-31 11:30:00,85.1,75.5,30.13,North,0,0.0,0.0,73,0.00,,,0.00,WUHU216HW,2013-07-31 15:30:00,
2013-07-31 11:35:00,85.1,75.5,30.13,North,0,0.0,0.0,73,0.00,,,0.00,WUHU216HW,2013-07-31 15:35:00,
2013-07-31 12:30:00,86.8,74.5,30.11,North,0,0.0,0.0,67,0.00,,,0.00,WUHU216HW,2013-07-31 16:30:00,
2013-07-31 12:35:00,86.8,74.5,30.11,North,0,0.0,0.0,67,0.00,,,0.00,WUHU216HW,2013-07-31 16:35:00,
2013-07-31 13:30:00,86.2,74.0,30.10,North,0,0.0,0.0,67,0.00,,,0.00,WUHU216HW,2013-07-31 17:30:00,
2013-07-31 13:35:00,86.2,74.0,30.10,North,0,0.0,0.0,67,0.00,,,0.00,WUHU216HW,2013-07-31 17:35:00,
2013-07-31 14:00:00,85.9,73.2,30.09,North,0,0.0,0.0,66,0.00,,,0.00,WUHU216HW,2013-07-31 18:00:00,
2013-07-31 14:05:00,85.9,73.2,30.09,North,0,0.0,0.0,66,0.00,,,0.00,WUHU216HW,2013-07-31 18:05:00,
2013-07-31 15:30:00,85.3,74.1,30.06,North,0,0.0,0.0,69,0.00,,,0.00,WUHU216HW,2013-07-31 19:30:00,
2013-07-31 15:35:00,85.3,74.1,30.06,North,0,0.0,0.0,69,0.00,,,0.00,WUHU216HW,2013-07-31 19:35:00,
2013-07-31 21:30:00,77.8,72.2,30.02,North,0,0.0,0.0,83,0.00,,,0.00,WUHU216HW,2013-08-01 01:30:00,
2013-07-31 21:35:00,77.6,72.0,30.02,North,0,0.0,0.0,83,0.00,,,0.00,WUHU216HW,2013-08-01 01:35:00,
2013-07-31 21:40:00,77.6,72.0,30.02,North,0,0.0,0.0,83,0.00,,,0.00,WUHU216HW,2013-08-01 01:40:00,